sensor_id;sensor_type;location;lat;lon;timestamp;pressure;altitude;pressure_sealevel;temperature;humidity
71126;BME280;58785;55.566;38.058;2023-01-28T00:01:15;100995.56;;;2.18;73.78
71126;BME280;58785;55.566;38.058;2023-01-28T00:03:41;100998.22;;;1.99;74.62
71126;BME280;58785;55.566;38.058;2023-01-28T00:06:11;101000.22;;;1.94;75.11
71126;BME280;58785;55.566;38.058;2023-01-28T00:08:37;100989.19;;;1.86;75.41
71126;BME280;58785;55.566;38.058;2023-01-28T00:11:04;100991.75;;;1.88;75.26
71126;BME280;58785;55.566;38.058;2023-01-28T00:13:32;100999.50;;;1.91;75.55
71126;BME280;58785;55.566;38.058;2023-01-28T00:15:59;100996.22;;;1.86;75.11
71126;BME280;58785;55.566;38.058;2023-01-28T00:18:28;100993.88;;;1.80;75.38
71126;BME280;58785;55.566;38.058;2023-01-28T00:21:09;100979.59;;;1.66;75.81
71126;BME280;58785;55.566;38.058;2023-01-28T00:23:37;100995.28;;;1.68;75.72
71126;BME280;58785;55.566;38.058;2023-01-28T00:26:06;100995.50;;;1.63;76.39
71126;BME280;58785;55.566;38.058;2023-01-28T00:28:31;100992.13;;;1.60;76.32
71126;BME280;58785;55.566;38.058;2023-01-28T00:30:57;100995.91;;;1.54;75.99
71126;BME280;58785;55.566;38.058;2023-01-28T00:33:23;101001.03;;;1.57;76.31
71126;BME280;58785;55.566;38.058;2023-01-28T00:35:59;100999.41;;;1.55;76.25
71126;BME280;58785;55.566;38.058;2023-01-28T00:38:25;100998.69;;;1.51;76.54
71126;BME280;58785;55.566;38.058;2023-01-28T00:40:51;100995.97;;;1.53;76.66
71126;BME280;58785;55.566;38.058;2023-01-28T00:43:17;100998.72;;;1.50;76.78
71126;BME280;58785;55.566;38.058;2023-01-28T00:45:42;100992.25;;;1.38;76.73
71126;BME280;58785;55.566;38.058;2023-01-28T00:48:08;100985.50;;;1.32;76.94
71126;BME280;58785;55.566;38.058;2023-01-28T00:50:34;101005.13;;;1.44;76.95
71126;BME280;58785;55.566;38.058;2023-01-28T00:52:59;101001.66;;;1.43;76.92
71126;BME280;58785;55.566;38.058;2023-01-28T00:55:25;100993.38;;;1.32;76.54
71126;BME280;58785;55.566;38.058;2023-01-28T00:57:52;100996.94;;;1.31;77.22
71126;BME280;58785;55.566;38.058;2023-01-28T01:00:19;101006.59;;;1.31;76.85
71126;BME280;58785;55.566;38.058;2023-01-28T01:02:51;101009.00;;;1.35;77.24
71126;BME280;58785;55.566;38.058;2023-01-28T01:05:17;101004.47;;;1.39;76.52
71126;BME280;58785;55.566;38.058;2023-01-28T01:07:43;101009.19;;;1.51;76.56
71126;BME280;58785;55.566;38.058;2023-01-28T01:10:17;101009.19;;;1.51;76.58
71126;BME280;58785;55.566;38.058;2023-01-28T01:12:48;101015.34;;;1.50;76.31
71126;BME280;58785;55.566;38.058;2023-01-28T01:15:15;101010.16;;;1.49;76.92
71126;BME280;58785;55.566;38.058;2023-01-28T01:17:43;101001.56;;;1.45;76.78
71126;BME280;58785;55.566;38.058;2023-01-28T01:20:15;101012.53;;;1.55;76.91
71126;BME280;58785;55.566;38.058;2023-01-28T01:22:41;101008.84;;;1.59;76.41
71126;BME280;58785;55.566;38.058;2023-01-28T01:25:07;101004.38;;;1.61;76.75
71126;BME280;58785;55.566;38.058;2023-01-28T01:27:35;101001.94;;;1.56;77.00
71126;BME280;58785;55.566;38.058;2023-01-28T01:30:00;100993.84;;;1.42;77.24
71126;BME280;58785;55.566;38.058;2023-01-28T01:32:32;101008.59;;;1.44;77.48
71126;BME280;58785;55.566;38.058;2023-01-28T01:35:00;101008.00;;;1.38;77.56
71126;BME280;58785;55.566;38.058;2023-01-28T01:37:26;101008.94;;;1.37;77.39
71126;BME280;58785;55.566;38.058;2023-01-28T01:39:51;100995.47;;;1.24;77.98
71126;BME280;58785;55.566;38.058;2023-01-28T01:42:17;101006.69;;;1.28;78.13
71126;BME280;58785;55.566;38.058;2023-01-28T01:44:59;101008.28;;;1.32;77.49
71126;BME280;58785;55.566;38.058;2023-01-28T01:47:45;101004.66;;;1.34;77.51
71126;BME280;58785;55.566;38.058;2023-01-28T01:50:55;101005.53;;;1.35;77.41
71126;BME280;58785;55.566;38.058;2023-01-28T01:53:24;100998.56;;;1.34;77.75
71126;BME280;58785;55.566;38.058;2023-01-28T01:55:53;100986.22;;;1.36;77.59
71126;BME280;58785;55.566;38.058;2023-01-28T01:58:22;100993.31;;;1.34;77.56
71126;BME280;58785;55.566;38.058;2023-01-28T02:00:50;100994.94;;;1.36;77.19
71126;BME280;58785;55.566;38.058;2023-01-28T02:03:18;100999.03;;;1.43;77.35
71126;BME280;58785;55.566;38.058;2023-01-28T02:05:48;100991.47;;;1.36;77.72
71126;BME280;58785;55.566;38.058;2023-01-28T02:08:14;101006.31;;;1.37;77.66
71126;BME280;58785;55.566;38.058;2023-01-28T02:11:06;101005.66;;;1.32;77.76
71126;BME280;58785;55.566;38.058;2023-01-28T02:13:35;100999.59;;;1.30;77.79
71126;BME280;58785;55.566;38.058;2023-01-28T02:16:04;101002.50;;;1.24;77.52
71126;BME280;58785;55.566;38.058;2023-01-28T02:18:31;101001.78;;;1.20;78.08
71126;BME280;58785;55.566;38.058;2023-01-28T02:21:47;101012.75;;;1.09;78.45
71126;BME280;58785;55.566;38.058;2023-01-28T02:25:03;101011.88;;;1.09;77.84
71126;BME280;58785;55.566;38.058;2023-01-28T02:30:21;101007.16;;;0.97;78.19
71126;BME280;58785;55.566;38.058;2023-01-28T02:32:52;101008.69;;;1.02;78.60
71126;BME280;58785;55.566;38.058;2023-01-28T02:35:48;101011.38;;;1.01;78.19
71126;BME280;58785;55.566;38.058;2023-01-28T02:38:27;101006.56;;;0.90;78.36
71126;BME280;58785;55.566;38.058;2023-01-28T02:41:09;101017.66;;;0.97;78.42
71126;BME280;58785;55.566;38.058;2023-01-28T02:43:39;101020.03;;;1.03;78.54
71126;BME280;58785;55.566;38.058;2023-01-28T02:46:31;101011.88;;;1.09;78.37
71126;BME280;58785;55.566;38.058;2023-01-28T02:49:24;101024.97;;;1.10;78.38
71126;BME280;58785;55.566;38.058;2023-01-28T02:55:03;101023.84;;;0.96;78.49
71126;BME280;58785;55.566;38.058;2023-01-28T03:05:44;101034.88;;;1.04;78.55
71126;BME280;58785;55.566;38.058;2023-01-28T03:08:38;101013.34;;;0.96;78.24
71126;BME280;58785;55.566;38.058;2023-01-28T03:11:23;101035.88;;;1.01;78.61
71126;BME280;58785;55.566;38.058;2023-01-28T03:14:10;101025.28;;;0.82;78.74
71126;BME280;58785;55.566;38.058;2023-01-28T03:16:56;101026.94;;;0.63;79.41
71126;BME280;58785;55.566;38.058;2023-01-28T03:19:42;101037.50;;;0.62;79.31
71126;BME280;58785;55.566;38.058;2023-01-28T03:22:28;101038.44;;;0.59;79.29
71126;BME280;58785;55.566;38.058;2023-01-28T03:25:18;101033.41;;;0.54;79.68
71126;BME280;58785;55.566;38.058;2023-01-28T03:28:05;101039.38;;;0.58;79.20
71126;BME280;58785;55.566;38.058;2023-01-28T03:31:03;101038.28;;;0.64;79.07
71126;BME280;58785;55.566;38.058;2023-01-28T03:33:49;101049.06;;;0.56;79.43
71126;BME280;58785;55.566;38.058;2023-01-28T03:36:35;101038.38;;;0.39;79.61
71126;BME280;58785;55.566;38.058;2023-01-28T03:39:21;101050.16;;;0.28;79.90
71126;BME280;58785;55.566;38.058;2023-01-28T03:41:58;101057.09;;;0.29;79.54
71126;BME280;58785;55.566;38.058;2023-01-28T03:44:25;101045.25;;;0.19;79.93
71126;BME280;58785;55.566;38.058;2023-01-28T03:47:10;101045.44;;;0.15;79.86
71126;BME280;58785;55.566;38.058;2023-01-28T03:49:40;101054.53;;;0.28;79.44
71126;BME280;58785;55.566;38.058;2023-01-28T03:52:06;101050.00;;;0.33;79.24
71126;BME280;58785;55.566;38.058;2023-01-28T03:54:31;101048.94;;;0.37;79.07
71126;BME280;58785;55.566;38.058;2023-01-28T03:56:57;101045.59;;;0.34;78.91
71126;BME280;58785;55.566;38.058;2023-01-28T03:59:23;101041.28;;;0.33;78.66
71126;BME280;58785;55.566;38.058;2023-01-28T04:01:48;101047.38;;;0.33;78.70
71126;BME280;58785;55.566;38.058;2023-01-28T04:04:15;101049.13;;;0.33;78.50
71126;BME280;58785;55.566;38.058;2023-01-28T04:06:51;101054.59;;;0.26;78.44
71126;BME280;58785;55.566;38.058;2023-01-28T04:09:18;101040.94;;;0.18;78.65
71126;BME280;58785;55.566;38.058;2023-01-28T04:11:44;101067.00;;;0.23;78.78
71126;BME280;58785;55.566;38.058;2023-01-28T04:14:09;101058.56;;;0.15;78.48
71126;BME280;58785;55.566;38.058;2023-01-28T04:16:35;101057.19;;;0.05;78.55
71126;BME280;58785;55.566;38.058;2023-01-28T04:19:00;101046.19;;;-0.05;78.51
71126;BME280;58785;55.566;38.058;2023-01-28T04:21:26;101056.47;;;0.01;78.57
71126;BME280;58785;55.566;38.058;2023-01-28T04:23:52;101053.78;;;0.03;78.28
71126;BME280;58785;55.566;38.058;2023-01-28T04:26:17;101052.00;;;0.03;78.21
71126;BME280;58785;55.566;38.058;2023-01-28T04:28:43;101053.03;;;-0.01;78.46
71126;BME280;58785;55.566;38.058;2023-01-28T04:31:09;101066.25;;;-0.04;78.22
71126;BME280;58785;55.566;38.058;2023-01-28T04:33:34;101060.34;;;-0.09;78.13
71126;BME280;58785;55.566;38.058;2023-01-28T04:36:00;101066.25;;;-0.04;77.99
71126;BME280;58785;55.566;38.058;2023-01-28T04:38:25;101066.59;;;-0.13;78.20
71126;BME280;58785;55.566;38.058;2023-01-28T04:40:52;101057.22;;;-0.20;78.39
71126;BME280;58785;55.566;38.058;2023-01-28T04:43:18;101072.75;;;-0.14;78.06
71126;BME280;58785;55.566;38.058;2023-01-28T04:45:45;101072.16;;;-0.22;78.31
71126;BME280;58785;55.566;38.058;2023-01-28T04:48:12;101072.16;;;-0.22;78.19
71126;BME280;58785;55.566;38.058;2023-01-28T04:50:38;101079.97;;;-0.21;78.02
71126;BME280;58785;55.566;38.058;2023-01-28T04:53:03;101065.91;;;-0.18;78.02
71126;BME280;58785;55.566;38.058;2023-01-28T04:55:29;101077.31;;;-0.19;77.76
71126;BME280;58785;55.566;38.058;2023-01-28T04:57:55;101078.97;;;-0.17;77.96
71126;BME280;58785;55.566;38.058;2023-01-28T05:00:20;101071.31;;;-0.23;77.63
71126;BME280;58785;55.566;38.058;2023-01-28T05:02:47;101073.84;;;-0.20;77.68
71126;BME280;58785;55.566;38.058;2023-01-28T05:05:12;101076.50;;;-0.21;77.50
71126;BME280;58785;55.566;38.058;2023-01-28T05:07:38;101082.81;;;-0.27;77.59
71126;BME280;58785;55.566;38.058;2023-01-28T05:10:04;101089.06;;;-0.31;77.51
71126;BME280;58785;55.566;38.058;2023-01-28T05:12:30;101083.22;;;-0.38;77.39
71126;BME280;58785;55.566;38.058;2023-01-28T05:14:58;101097.25;;;-0.40;77.36
71126;BME280;58785;55.566;38.058;2023-01-28T05:17:29;101088.16;;;-0.55;77.29
71126;BME280;58785;55.566;38.058;2023-01-28T05:19:54;101092.66;;;-0.59;77.28
71126;BME280;58785;55.566;38.058;2023-01-28T05:22:20;101090.78;;;-0.55;77.21
71126;BME280;58785;55.566;38.058;2023-01-28T05:24:45;101101.38;;;-0.58;77.11
71126;BME280;58785;55.566;38.058;2023-01-28T05:27:11;101098.75;;;-0.58;76.56
71126;BME280;58785;55.566;38.058;2023-01-28T05:29:37;101085.75;;;-0.61;77.37
71126;BME280;58785;55.566;38.058;2023-01-28T05:32:03;101093.94;;;-0.45;77.14
71126;BME280;58785;55.566;38.058;2023-01-28T05:34:29;101095.84;;;-0.49;76.75
71126;BME280;58785;55.566;38.058;2023-01-28T05:36:54;101095.19;;;-0.55;76.87
71126;BME280;58785;55.566;38.058;2023-01-28T05:39:20;101095.97;;;-0.53;76.91
71126;BME280;58785;55.566;38.058;2023-01-28T05:41:45;101107.31;;;-0.53;76.68
71126;BME280;58785;55.566;38.058;2023-01-28T05:44:11;101104.59;;;-0.50;76.68
71126;BME280;58785;55.566;38.058;2023-01-28T05:46:37;101100.34;;;-0.54;76.33
71126;BME280;58785;55.566;38.058;2023-01-28T05:49:02;101106.75;;;-0.63;76.59
71126;BME280;58785;55.566;38.058;2023-01-28T05:51:28;101100.91;;;-0.71;76.38
71126;BME280;58785;55.566;38.058;2023-01-28T05:53:53;101103.22;;;-0.87;76.45
71126;BME280;58785;55.566;38.058;2023-01-28T05:56:19;101106.88;;;-0.92;76.86
71126;BME280;58785;55.566;38.058;2023-01-28T05:58:45;101108.44;;;-0.87;76.32
71126;BME280;58785;55.566;38.058;2023-01-28T06:01:11;101102.31;;;-0.85;76.67
71126;BME280;58785;55.566;38.058;2023-01-28T06:03:37;101108.94;;;-0.75;76.80
71126;BME280;58785;55.566;38.058;2023-01-28T06:06:03;101114.06;;;-0.72;76.55
71126;BME280;58785;55.566;38.058;2023-01-28T06:08:28;101123.81;;;-0.76;76.32
71126;BME280;58785;55.566;38.058;2023-01-28T06:10:54;101120.38;;;-0.78;76.35
71126;BME280;58785;55.566;38.058;2023-01-28T06:13:20;101102.06;;;-0.78;76.29
71126;BME280;58785;55.566;38.058;2023-01-28T06:15:48;101113.31;;;-0.76;76.36
71126;BME280;58785;55.566;38.058;2023-01-28T06:18:14;101109.75;;;-0.73;75.82
71126;BME280;58785;55.566;38.058;2023-01-28T06:20:40;101116.00;;;-0.77;76.31
71126;BME280;58785;55.566;38.058;2023-01-28T06:23:05;101125.34;;;-0.70;76.38
71126;BME280;58785;55.566;38.058;2023-01-28T06:25:31;101109.56;;;-0.67;76.20
71126;BME280;58785;55.566;38.058;2023-01-28T06:27:57;101118.50;;;-0.74;76.23
71126;BME280;58785;55.566;38.058;2023-01-28T06:30:22;101120.56;;;-0.84;76.42
71126;BME280;58785;55.566;38.058;2023-01-28T06:32:53;101118.75;;;-0.82;76.32
71126;BME280;58785;55.566;38.058;2023-01-28T06:35:20;101124.66;;;-0.75;76.02
71126;BME280;58785;55.566;38.058;2023-01-28T06:37:46;101123.84;;;-0.77;76.16
71126;BME280;58785;55.566;38.058;2023-01-28T06:40:12;101117.59;;;-0.73;76.12
71126;BME280;58785;55.566;38.058;2023-01-28T06:42:38;101107.34;;;-0.79;75.74
71126;BME280;58785;55.566;38.058;2023-01-28T06:45:04;101123.63;;;-0.71;76.04
71126;BME280;58785;55.566;38.058;2023-01-28T06:47:29;101135.88;;;-0.72;75.76
71126;BME280;58785;55.566;38.058;2023-01-28T06:49:55;101135.03;;;-0.72;75.73
71126;BME280;58785;55.566;38.058;2023-01-28T06:52:21;101135.97;;;-0.75;75.78
71126;BME280;58785;55.566;38.058;2023-01-28T06:54:47;101129.41;;;-0.87;75.79
71126;BME280;58785;55.566;38.058;2023-01-28T06:57:12;101139.47;;;-0.74;75.67
71126;BME280;58785;55.566;38.058;2023-01-28T06:59:38;101143.66;;;-0.70;75.57
71126;BME280;58785;55.566;38.058;2023-01-28T07:02:04;101139.50;;;-0.76;75.56
71126;BME280;58785;55.566;38.058;2023-01-28T07:04:30;101149.03;;;-0.73;75.43
71126;BME280;58785;55.566;38.058;2023-01-28T07:06:56;101149.53;;;-0.62;75.09
71126;BME280;58785;55.566;38.058;2023-01-28T07:09:21;101157.00;;;-0.51;74.80
71126;BME280;58785;55.566;38.058;2023-01-28T07:11:47;101139.50;;;-0.49;74.59
71126;BME280;58785;55.566;38.058;2023-01-28T07:14:12;101148.47;;;-0.56;73.84
71126;BME280;58785;55.566;38.058;2023-01-28T07:16:38;101149.53;;;-0.62;74.39
71126;BME280;58785;55.566;38.058;2023-01-28T07:19:04;101146.09;;;-0.64;74.40
71126;BME280;58785;55.566;38.058;2023-01-28T07:21:29;101140.88;;;-0.64;74.46
71126;BME280;58785;55.566;38.058;2023-01-28T07:23:55;101149.44;;;-0.59;74.14
71126;BME280;58785;55.566;38.058;2023-01-28T07:26:22;101149.13;;;-0.50;74.05
71126;BME280;58785;55.566;38.058;2023-01-28T07:28:48;101141.97;;;-0.45;73.46
71126;BME280;58785;55.566;38.058;2023-01-28T07:31:13;101146.22;;;-0.42;73.61
71126;BME280;58785;55.566;38.058;2023-01-28T07:33:39;101132.38;;;-0.46;73.60
71126;BME280;58785;55.566;38.058;2023-01-28T07:36:05;101139.09;;;-0.37;73.43
71126;BME280;58785;55.566;38.058;2023-01-28T07:38:31;101128.53;;;-0.36;73.40
71126;BME280;58785;55.566;38.058;2023-01-28T07:40:56;101128.66;;;-0.39;73.40
71126;BME280;58785;55.566;38.058;2023-01-28T07:43:22;101142.66;;;-0.40;73.38
71126;BME280;58785;55.566;38.058;2023-01-28T07:45:48;101138.16;;;-0.36;73.44
71126;BME280;58785;55.566;38.058;2023-01-28T07:48:14;101137.44;;;-0.40;73.27
71126;BME280;58785;55.566;38.058;2023-01-28T07:50:40;101135.91;;;-0.47;73.02
71126;BME280;58785;55.566;38.058;2023-01-28T07:53:08;101134.41;;;-0.54;72.94
71126;BME280;58785;55.566;38.058;2023-01-28T07:55:36;101145.13;;;-0.60;73.09
71126;BME280;58785;55.566;38.058;2023-01-28T07:58:03;101149.56;;;-0.64;73.08
71126;BME280;58785;55.566;38.058;2023-01-28T08:00:31;101134.88;;;-0.68;73.07
71126;BME280;58785;55.566;38.058;2023-01-28T08:02:59;101133.00;;;-0.64;72.70
71126;BME280;58785;55.566;38.058;2023-01-28T08:05:31;101147.03;;;-0.40;72.88
71126;BME280;58785;55.566;38.058;2023-01-28T08:08:03;101141.38;;;-0.28;72.21
71126;BME280;58785;55.566;38.058;2023-01-28T08:10:29;101133.59;;;-0.30;72.13
71126;BME280;58785;55.566;38.058;2023-01-28T08:12:56;101142.00;;;-0.21;71.86
71126;BME280;58785;55.566;38.058;2023-01-28T08:15:23;101135.81;;;-0.19;71.86
71126;BME280;58785;55.566;38.058;2023-01-28T08:17:49;101130.47;;;-0.16;71.75
71126;BME280;58785;55.566;38.058;2023-01-28T08:20:15;101149.34;;;-0.06;71.48
71126;BME280;58785;55.566;38.058;2023-01-28T08:22:42;101140.09;;;-0.16;71.50
71126;BME280;58785;55.566;38.058;2023-01-28T08:25:08;101128.69;;;-0.15;71.48
71126;BME280;58785;55.566;38.058;2023-01-28T08:27:34;101146.47;;;0.02;71.37
71126;BME280;58785;55.566;38.058;2023-01-28T08:29:59;101134.81;;;0.09;71.31
71126;BME280;58785;55.566;38.058;2023-01-28T08:32:25;101139.31;;;0.05;70.83
71126;BME280;58785;55.566;38.058;2023-01-28T08:34:50;101140.03;;;0.10;71.03
71126;BME280;58785;55.566;38.058;2023-01-28T08:37:16;101145.16;;;0.13;70.98
71126;BME280;58785;55.566;38.058;2023-01-28T08:39:41;101144.97;;;0.18;70.77
71126;BME280;58785;55.566;38.058;2023-01-28T08:42:07;101144.81;;;0.22;70.80
71126;BME280;58785;55.566;38.058;2023-01-28T08:44:33;101133.53;;;0.20;70.73
71126;BME280;58785;55.566;38.058;2023-01-28T08:46:59;101130.78;;;0.23;70.83
71126;BME280;58785;55.566;38.058;2023-01-28T08:49:25;101136.75;;;0.27;70.84
71126;BME280;58785;55.566;38.058;2023-01-28T08:51:51;101121.16;;;0.24;70.75
71126;BME280;58785;55.566;38.058;2023-01-28T08:54:17;101134.59;;;0.38;70.45
71126;BME280;58785;55.566;38.058;2023-01-28T08:56:42;101119.72;;;0.39;70.17
71126;BME280;58785;55.566;38.058;2023-01-28T08:59:12;101126.09;;;0.55;70.25
71126;BME280;58785;55.566;38.058;2023-01-28T09:01:38;101132.06;;;0.58;69.89
71126;BME280;58785;55.566;38.058;2023-01-28T09:04:04;101127.22;;;0.48;70.14
71126;BME280;58785;55.566;38.058;2023-01-28T09:06:30;101130.03;;;0.43;70.07
71126;BME280;58785;55.566;38.058;2023-01-28T09:08:57;101118.06;;;0.36;70.04
71126;BME280;58785;55.566;38.058;2023-01-28T09:11:23;101124.03;;;0.40;70.47
71126;BME280;58785;55.566;38.058;2023-01-28T09:13:49;101118.56;;;0.46;69.94
71126;BME280;58785;55.566;38.058;2023-01-28T09:16:15;101107.84;;;0.52;70.07
71126;BME280;58785;55.566;38.058;2023-01-28T09:18:41;101116.25;;;0.60;70.07
71126;BME280;58785;55.566;38.058;2023-01-28T09:21:07;101117.00;;;0.64;69.62
71126;BME280;58785;55.566;38.058;2023-01-28T09:23:34;101110.22;;;0.58;69.77
71126;BME280;58785;55.566;38.058;2023-01-28T09:26:01;101117.56;;;0.72;69.75
71126;BME280;58785;55.566;38.058;2023-01-28T09:28:27;101115.47;;;0.80;69.43
71126;BME280;58785;55.566;38.058;2023-01-28T09:31:03;101110.84;;;0.65;69.56
71126;BME280;58785;55.566;38.058;2023-01-28T09:33:29;101101.13;;;0.45;69.70
71126;BME280;58785;55.566;38.058;2023-01-28T09:35:55;101104.81;;;0.39;69.91
71126;BME280;58785;55.566;38.058;2023-01-28T09:38:20;101105.22;;;0.52;70.01
71126;BME280;58785;55.566;38.058;2023-01-28T09:40:46;101111.78;;;0.64;70.02
71126;BME280;58785;55.566;38.058;2023-01-28T09:45:45;101109.88;;;0.67;69.74
71126;BME280;58785;55.566;38.058;2023-01-28T09:48:15;101106.88;;;0.76;69.06
71126;BME280;58785;55.566;38.058;2023-01-28T09:50:45;101094.81;;;0.72;69.34
71126;BME280;58785;55.566;38.058;2023-01-28T09:53:27;101101.63;;;0.76;69.38
71126;BME280;58785;55.566;38.058;2023-01-28T09:56:01;101095.38;;;0.80;69.31
71126;BME280;58785;55.566;38.058;2023-01-28T09:58:27;101099.72;;;0.80;69.12
71126;BME280;58785;55.566;38.058;2023-01-28T10:09:43;101092.53;;;0.63;69.14
71126;BME280;58785;55.566;38.058;2023-01-28T10:15:20;101090.22;;;0.55;69.09
71126;BME280;58785;55.566;38.058;2023-01-28T10:17:53;101084.03;;;0.56;69.37
71126;BME280;58785;55.566;38.058;2023-01-28T10:20:31;101086.25;;;0.67;69.16
71126;BME280;58785;55.566;38.058;2023-01-28T10:23:04;101075.38;;;0.76;68.94
71126;BME280;58785;55.566;38.058;2023-01-28T10:25:32;101078.13;;;0.73;68.75
71126;BME280;58785;55.566;38.058;2023-01-28T10:28:00;101074.47;;;0.77;68.90
71126;BME280;58785;55.566;38.058;2023-01-28T10:30:29;101079.13;;;0.71;68.64
71126;BME280;58785;55.566;38.058;2023-01-28T10:33:02;101070.63;;;0.64;68.74
71126;BME280;58785;55.566;38.058;2023-01-28T10:35:32;101071.56;;;0.63;68.97
71126;BME280;58785;55.566;38.058;2023-01-28T10:38:04;101069.00;;;0.62;69.26
71126;BME280;58785;55.566;38.058;2023-01-28T10:40:34;101057.25;;;0.48;69.21
71126;BME280;58785;55.566;38.058;2023-01-28T10:43:00;101059.50;;;0.57;69.07
71126;BME280;58785;55.566;38.058;2023-01-28T10:45:28;101061.22;;;0.58;69.21
71126;BME280;58785;55.566;38.058;2023-01-28T10:47:58;101068.22;;;0.58;69.46
71126;BME280;58785;55.566;38.058;2023-01-28T10:50:27;101061.06;;;0.63;68.97
71126;BME280;58785;55.566;38.058;2023-01-28T10:52:58;101062.63;;;0.67;69.08
71126;BME280;58785;55.566;38.058;2023-01-28T10:58:20;101054.88;;;0.86;68.98
71126;BME280;58785;55.566;38.058;2023-01-28T11:00:55;101060.72;;;0.93;68.54
71126;BME280;58785;55.566;38.058;2023-01-28T11:03:22;101058.88;;;0.95;68.82
71126;BME280;58785;55.566;38.058;2023-01-28T11:05:55;101053.25;;;1.04;68.75
71126;BME280;58785;55.566;38.058;2023-01-28T11:08:26;101063.75;;;1.04;68.19
71126;BME280;58785;55.566;38.058;2023-01-28T11:10:53;101054.19;;;1.03;68.30
71126;BME280;58785;55.566;38.058;2023-01-28T11:13:27;101059.13;;;1.10;68.42
71126;BME280;58785;55.566;38.058;2023-01-28T11:18:27;101054.91;;;1.27;67.94
71126;BME280;58785;55.566;38.058;2023-01-28T11:20:59;101052.88;;;1.33;68.11
71126;BME280;58785;55.566;38.058;2023-01-28T11:23:34;101049.25;;;1.36;68.31
71126;BME280;58785;55.566;38.058;2023-01-28T11:28:34;101040.47;;;1.37;68.32
71126;BME280;58785;55.566;38.058;2023-01-28T11:31:01;101046.19;;;1.47;68.15
71126;BME280;58785;55.566;38.058;2023-01-28T11:36:20;101040.84;;;1.48;68.12
71126;BME280;58785;55.566;38.058;2023-01-28T11:38:55;101045.72;;;1.37;68.53
71126;BME280;58785;55.566;38.058;2023-01-28T11:41:32;101041.25;;;1.39;68.61
71126;BME280;58785;55.566;38.058;2023-01-28T11:44:01;101038.69;;;1.37;68.25
71126;BME280;58785;55.566;38.058;2023-01-28T11:51:09;101040.38;;;1.38;68.17
71126;BME280;58785;55.566;38.058;2023-01-28T11:56:18;101030.63;;;1.42;68.17
71126;BME280;58785;55.566;38.058;2023-01-28T12:01:51;101023.00;;;1.36;68.03
71126;BME280;58785;55.566;38.058;2023-01-28T12:04:24;101011.56;;;1.37;68.53
71126;BME280;58785;55.566;38.058;2023-01-28T12:21:03;100983.81;;;1.50;67.81
71126;BME280;58785;55.566;38.058;2023-01-28T12:26:16;100984.44;;;1.36;68.09
71126;BME280;58785;55.566;38.058;2023-01-28T12:35:21;100985.44;;;1.34;68.75
71126;BME280;58785;55.566;38.058;2023-01-28T12:38:10;100992.72;;;1.27;68.48
71126;BME280;58785;55.566;38.058;2023-01-28T12:40:43;100990.88;;;1.29;68.67
71126;BME280;58785;55.566;38.058;2023-01-28T12:43:18;100981.56;;;1.22;68.76
71126;BME280;58785;55.566;38.058;2023-01-28T12:45:58;100986.28;;;1.14;68.31
71126;BME280;58785;55.566;38.058;2023-01-28T12:48:31;100983.06;;;1.07;68.82
71126;BME280;58785;55.566;38.058;2023-01-28T12:51:17;100994.41;;;1.08;69.29
71126;BME280;58785;55.566;38.058;2023-01-28T12:53:51;100985.44;;;1.13;69.06
71126;BME280;58785;55.566;38.058;2023-01-28T12:56:42;100979.91;;;1.20;68.91
71126;BME280;58785;55.566;38.058;2023-01-28T12:59:15;100984.97;;;1.24;68.59
71126;BME280;58785;55.566;38.058;2023-01-28T13:02:05;100980.50;;;1.26;69.11
71126;BME280;58785;55.566;38.058;2023-01-28T13:07:33;100979.25;;;1.35;68.35
71126;BME280;58785;55.566;38.058;2023-01-28T13:10:21;100970.50;;;1.34;68.20
71126;BME280;58785;55.566;38.058;2023-01-28T13:12:49;100970.50;;;1.34;68.73
71126;BME280;58785;55.566;38.058;2023-01-28T13:15:17;100956.78;;;1.28;68.57
71126;BME280;58785;55.566;38.058;2023-01-28T13:17:59;100968.16;;;1.28;68.55
71126;BME280;58785;55.566;38.058;2023-01-28T13:20:36;100972.88;;;1.20;69.16
71126;BME280;58785;55.566;38.058;2023-01-28T13:23:04;100974.09;;;1.13;69.32
71126;BME280;58785;55.566;38.058;2023-01-28T13:25:47;100975.97;;;1.09;69.01
71126;BME280;58785;55.566;38.058;2023-01-28T13:28:29;100974.19;;;1.10;69.17
71126;BME280;58785;55.566;38.058;2023-01-28T13:31:13;100963.84;;;1.07;69.09
71126;BME280;58785;55.566;38.058;2023-01-28T13:36:24;100970.00;;;1.06;69.12
71126;BME280;58785;55.566;38.058;2023-01-28T13:47:35;100968.38;;;1.03;69.54
71126;BME280;58785;55.566;38.058;2023-01-28T13:49:42;100963.91;;;1.05;69.20
71126;BME280;58785;55.566;38.058;2023-01-28T13:54:39;100964.38;;;0.95;69.37
71126;BME280;58785;55.566;38.058;2023-01-28T14:03:19;100952.53;;;0.84;69.50
71126;BME280;58785;55.566;38.058;2023-01-28T14:06:15;100951.88;;;0.79;69.78
71126;BME280;58785;55.566;38.058;2023-01-28T14:20:21;100936.66;;;0.88;69.57
71126;BME280;58785;55.566;38.058;2023-01-28T14:22:48;100931.34;;;0.89;69.49
71126;BME280;58785;55.566;38.058;2023-01-28T14:25:21;100918.41;;;0.84;69.66
71126;BME280;58785;55.566;38.058;2023-01-28T14:27:51;100924.38;;;0.88;69.81
71126;BME280;58785;55.566;38.058;2023-01-28T14:30:46;100928.00;;;0.85;70.05
71126;BME280;58785;55.566;38.058;2023-01-28T14:33:15;100927.22;;;0.83;69.62
71126;BME280;58785;55.566;38.058;2023-01-28T14:35:46;100928.06;;;0.84;69.77
71126;BME280;58785;55.566;38.058;2023-01-28T14:38:16;100926.47;;;0.80;69.78
71126;BME280;58785;55.566;38.058;2023-01-28T14:40:44;100926.22;;;0.86;70.03
71126;BME280;58785;55.566;38.058;2023-01-28T14:43:19;100931.00;;;0.97;69.73
71126;BME280;58785;55.566;38.058;2023-01-28T14:46:03;100931.00;;;0.97;69.48
71126;BME280;58785;55.566;38.058;2023-01-28T14:54:26;100931.31;;;1.09;69.48
71126;BME280;58785;55.566;38.058;2023-01-28T14:59:46;100932.97;;;1.12;69.30